Terminal Aerodrome Forecast
Issued by NWS

Home | Current Version | Previous Version | Text Only | Print | Product List | Glossary On
Versions: 1 2 3 4 5 6 7 8 9 10 11 12 13 14 15 16 17 18 19 20 21 22
000
FTUS46 KEKA 211149
TAFCEC
TAF
KCEC 211149Z 2112/2212 VRB03KT 6SM BR OVC015
     FM211700 32008KT P6SM BKN015 OVC250
     FM212200 34018G30KT P6SM BKN015 BKN250
     FM220300 35015G25KT P6SM SCT020=

USA.gov is the U.S. government's official web portal to all federal, state and local government web resources and services.